Aeroporto :
LOGIN :

Iscrizione | Disclaimer

   EN    FR    IT 

 










Sommario :    VFR   VFR Marginale   IFR   IFR Intensivo   IFR Molto Intensivo
Visibilità : 
Base nubi : 
>= 8 km
>= 3000ft
5 / 8 km
1000 / 3000 ft
1500m / 5 km
500 / 1000 ft
800 / 1500m
200 / 500 ft
< 800m
< 200 ft
Simboli :   Temporali  Nebbia  Neve Forte  Precipitazioni Forti  Vento > 20 kt
SIGMETs :   Varie  Temporali  Ghiacco  Turbolenza  Onda orograficha  Ceneri Vulcaniche







- Altitudine del aeroporto : 157 ft
- Codice IATA : LIL
- Carte del aeroporto


LFQQ - Lille Lesquin

ULTIMO METAR :
  • 192030Z AUTO 36008KT CAVOK 18/07 Q1027 NOSIG

METARs OBSOLETI :
  • 192000Z AUTO 36010KT CAVOK 19/07 Q1027 NOSIG
  • 191930Z AUTO 36009KT CAVOK 20/07 Q1027 NOSIG
  • 191900Z AUTO 01009KT CAVOK 20/07 Q1026 NOSIG
  • 191830Z AUTO 01006KT CAVOK 21/05 Q1026 NOSIG
  • 191800Z AUTO 02007KT 360V070 CAVOK 22/05 Q1026 NOSIG

TAF TAF LFQQ
Valido dal 19 a 18 ore il 21 a 00 ore UTC


191700Z 1918/2024 04008KT CAVOK
ATIS : +33 3 20 16 19 54
Nessun NOTAM noto per questo aeroporto.



MetMap, La meteo Aeronautica in un colpo d'occhio ! - Copyright ORBIFLY Dicembre 2007 - Disclaimer

ORBIFLY MET'MAP TEAM :

Programmazione e sviluppo : Alexandra Zaïnal
Concezione e sviluppo : Baudouin d'Aumeries
Co-Programmazione e sviluppo : Marc-Olivier Méhu
Supporto tecnico e logistico : Manuel Goepfert
Aiuto per la traduzione : Arnaldo La Scala

Contatto : metmap@orbifly.com




FONTI E CREDITI :

   NOAA